createdAt,value
2022-12-15T08:03:57.621Z,11.28
2022-12-15T08:06:24.929Z,11.49
2022-12-15T08:08:51.632Z,11.74
2022-12-15T08:11:19.818Z,12.03
2022-12-15T08:14:03.503Z,12.37
2022-12-15T08:16:31.466Z,12.74
2022-12-15T08:18:58.055Z,13.06
2022-12-15T08:21:24.620Z,13.27
2022-12-15T08:23:51.285Z,13.49
2022-12-15T08:26:18.890Z,13.67
2022-12-15T08:28:46.150Z,13.86
2022-12-15T08:31:22.168Z,14.00
2022-12-15T08:33:49.587Z,14.16
2022-12-15T08:36:18.351Z,14.30
2022-12-15T08:38:46.235Z,14.42
2022-12-15T08:41:16.490Z,14.53
2022-12-15T08:43:48.199Z,14.62
2022-12-15T08:46:25.499Z,14.72
2022-12-15T08:48:55.569Z,14.82
2022-12-15T08:51:23.758Z,14.92
2022-12-15T08:53:50.438Z,14.99
2022-12-15T08:56:19.808Z,14.95
2022-12-15T08:58:47.778Z,14.82
2022-12-15T09:01:24.225Z,14.67
2022-12-15T09:03:55.407Z,14.53
2022-12-15T09:06:31.206Z,14.39
2022-12-15T09:09:00.496Z,14.26
2022-12-15T09:11:28.748Z,14.15
2022-12-15T09:13:55.524Z,14.04
2022-12-15T09:16:22.824Z,13.98
2022-12-15T09:18:51.842Z,13.91
2022-12-15T09:21:22.227Z,13.86
2022-12-15T09:23:51.591Z,13.79
2022-12-15T09:26:19.443Z,13.74
2022-12-15T09:28:50.167Z,13.68
2022-12-15T09:31:28.160Z,13.65
2022-12-15T09:33:56.646Z,13.60
2022-12-15T09:36:24.094Z,13.69
2022-12-15T09:38:50.522Z,13.92
2022-12-15T09:41:22.618Z,14.19
2022-12-15T09:44:04.186Z,14.40
2022-12-15T09:46:42.230Z,14.60
2022-12-15T09:49:43.533Z,14.81
2022-12-15T09:52:17.729Z,15.02
2022-12-15T09:54:45.022Z,15.21
2022-12-15T09:57:26.074Z,15.33
2022-12-15T10:00:22.310Z,15.40
2022-12-15T10:02:56.132Z,15.43
2022-12-15T10:06:15.370Z,15.50
2022-12-15T10:08:32.889Z,15.58
2022-12-15T10:11:02.261Z,15.64
2022-12-15T10:13:55.734Z,15.76
2022-12-15T10:16:34.274Z,15.83
2022-12-15T10:19:22.519Z,15.91
2022-12-15T10:21:50.411Z,16.00
2022-12-15T10:24:44.242Z,16.18
2022-12-15T10:27:24.385Z,16.37
2022-12-15T10:30:05.387Z,16.49
2022-12-15T10:33:02.068Z,16.61
2022-12-15T10:35:34.206Z,16.72
2022-12-15T10:38:37.646Z,16.83
2022-12-15T10:41:22.395Z,16.91
2022-12-15T10:43:51.430Z,16.95
2022-12-15T10:46:20.079Z,17.03
2022-12-15T10:48:51.763Z,17.06
2022-12-15T10:51:20.119Z,17.12
2022-12-15T10:53:53.885Z,17.18
2022-12-15T10:56:32.787Z,17.22
2022-12-15T10:59:03.893Z,17.29
2022-12-15T11:01:31.902Z,17.34
2022-12-15T11:03:58.665Z,17.37
2022-12-15T11:06:31.225Z,17.42
2022-12-15T11:09:26.761Z,17.46
2022-12-15T11:12:12.292Z,17.49
2022-12-15T11:14:46.438Z,17.54
2022-12-15T11:17:19.449Z,17.66
2022-12-15T11:20:07.020Z,17.62
2022-12-15T11:22:50.358Z,17.58
2022-12-15T11:28:52.687Z,17.51
2022-12-15T11:31:29.900Z,17.47
2022-12-15T11:33:56.404Z,17.42
2022-12-15T11:36:50.027Z,17.45
2022-12-15T11:39:49.884Z,17.55
2022-12-15T11:42:38.704Z,17.63
2022-12-15T11:45:37.032Z,17.72
2022-12-15T11:48:20.864Z,17.76
2022-12-15T11:51:10.534Z,17.82
2022-12-15T11:53:56.204Z,17.77
2022-12-15T11:56:41.418Z,17.71
2022-12-15T11:59:32.355Z,17.75
2022-12-15T12:02:18.879Z,17.84
2022-12-15T12:05:07.079Z,17.90
2022-12-15T12:08:01.350Z,17.98
2022-12-15T12:10:31.007Z,17.96
2022-12-15T12:13:11.982Z,17.96
2022-12-15T12:16:01.542Z,18.01
2022-12-15T12:18:34.297Z,18.08
2022-12-15T12:21:08.410Z,18.19
2022-12-15T12:23:39.578Z,18.23
2022-12-15T12:26:15.767Z,18.26
2022-12-15T12:28:48.868Z,18.30
2022-12-15T12:31:22.569Z,18.03
2022-12-15T12:33:55.357Z,17.81
2022-12-15T12:36:21.893Z,17.57
2022-12-15T12:38:52.933Z,17.32
2022-12-15T12:41:38.108Z,17.06
2022-12-15T12:44:15.670Z,16.84
2022-12-15T12:46:48.988Z,16.65
2022-12-15T12:49:27.871Z,16.49
2022-12-15T12:52:00.483Z,16.30
2022-12-15T12:54:35.888Z,16.15
2022-12-15T12:57:37.715Z,15.98
2022-12-15T13:00:20.437Z,15.85
2022-12-15T13:02:52.835Z,15.78
2022-12-15T13:05:37.157Z,15.68
2022-12-15T13:08:04.950Z,15.60
2022-12-15T13:10:36.176Z,15.53
2022-12-15T13:13:08.612Z,15.46
2022-12-15T13:15:42.390Z,15.40
2022-12-15T13:18:19.855Z,15.33
2022-12-15T13:20:50.452Z,15.27
2022-12-15T13:23:20.028Z,15.21
2022-12-15T13:26:06.667Z,15.16
2022-12-15T13:28:35.910Z,15.11
2022-12-15T13:31:18.485Z,15.09
2022-12-15T13:33:51.339Z,15.05
2022-12-15T13:36:36.327Z,15.02
2022-12-15T13:39:24.126Z,14.98
2022-12-15T13:42:23.774Z,14.95
2022-12-15T13:44:42.732Z,14.93
2022-12-15T13:47:16.575Z,14.90
2022-12-15T13:55:39.834Z,14.95
2022-12-15T13:58:15.967Z,15.16
2022-12-15T14:00:52.685Z,15.37
2022-12-15T14:03:19.611Z,15.59
2022-12-15T14:05:55.318Z,15.71
2022-12-15T14:08:23.631Z,15.71
2022-12-15T14:10:55.407Z,15.66
2022-12-15T14:13:30.367Z,15.61
2022-12-15T14:16:16.629Z,15.56
2022-12-15T14:18:43.273Z,15.49
2022-12-15T14:21:22.203Z,15.43
2022-12-15T14:24:19.698Z,15.37
2022-12-15T14:26:36.015Z,15.45
2022-12-15T14:29:05.302Z,15.63
2022-12-15T14:31:31.987Z,15.88
2022-12-15T14:34:13.553Z,16.18
2022-12-15T14:36:41.984Z,16.45
2022-12-15T14:39:20.222Z,16.67
2022-12-15T14:41:49.162Z,16.89
2022-12-15T14:44:48.126Z,17.04
2022-12-15T14:47:26.746Z,17.12
2022-12-15T14:49:55.204Z,17.18
2022-12-15T14:52:28.210Z,17.36
2022-12-15T14:54:57.838Z,17.53
2022-12-15T14:57:40.721Z,17.65
2022-12-15T15:00:27.795Z,17.76
2022-12-15T15:03:05.642Z,14.88
2022-12-15T15:03:06.890Z,17.54
2022-12-15T15:03:19.136Z,17.89
2022-12-15T15:05:50.257Z,17.97
2022-12-15T15:08:44.826Z,18.05
2022-12-15T15:11:17.395Z,18.08
2022-12-15T15:13:44.838Z,18.14
2022-12-15T15:16:17.698Z,18.19
2022-12-15T15:18:48.576Z,18.23
2022-12-15T15:21:20.879Z,18.28
2022-12-15T15:24:04.911Z,18.33
2022-12-15T15:26:31.567Z,18.38
2022-12-15T15:28:58.495Z,18.41
2022-12-15T15:31:24.956Z,18.46
2022-12-15T15:33:52.744Z,18.48
2022-12-15T15:36:19.250Z,18.52
2022-12-15T15:38:46.724Z,18.52
2022-12-15T15:41:18.746Z,18.39
2022-12-15T15:43:45.971Z,18.48
2022-12-15T15:46:19.899Z,18.56
2022-12-15T15:48:52.218Z,18.57
2022-12-15T15:51:19.605Z,18.66
2022-12-15T15:53:46.652Z,18.67
2022-12-15T15:56:16.330Z,18.73
2022-12-15T15:58:43.803Z,18.81
2022-12-15T16:01:13.334Z,18.85
2022-12-15T16:03:41.177Z,18.84
2022-12-15T16:06:17.063Z,18.85
2022-12-15T16:08:46.375Z,18.84
2022-12-15T16:11:12.839Z,18.86
2022-12-15T16:13:39.428Z,18.86
2022-12-15T16:16:06.685Z,18.84
2022-12-15T16:18:33.548Z,18.82
2022-12-15T16:21:00.234Z,18.85
2022-12-15T16:23:29.277Z,18.76
2022-12-15T16:26:00.311Z,18.76
2022-12-15T16:28:29.473Z,18.81
2022-12-15T16:30:58.655Z,18.80
2022-12-15T16:33:25.272Z,18.81
